Time;durP1;ratioP1;P1;durP2;ratioP2;P2;SDS_P1;SDS_P2;PMS_P1;PMS_P2;Temp;Humidity;BMP_temperature;BMP_pressure;BME280_temperature;BME280_humidity;BME280_pressure;Samples;Min_cycle;Max_cycle;Signal;HPM_P1;HPM_P2
2022/11/20 00:01:17;;;;;;;19.75;9.55;;;-4.50;99.90;;;-6.42;100.00;100454.03;4820323;29;20647;-75
2022/11/20 00:03:44;;;;;;;21.67;10.55;;;-4.50;99.90;;;-6.43;100.00;100451.47;4820360;29;20026;-74
2022/11/20 00:06:15;;;;;;;19.20;10.52;;;-4.50;99.90;;;-6.39;100.00;100455.59;4820188;29;20558;-74
2022/11/20 00:08:42;;;;;;;20.58;10.05;;;-4.40;99.90;;;-6.41;100.00;100452.22;4820048;29;20139;-73
2022/11/20 00:11:20;;;;;;;23.98;11.25;;;-4.50;99.90;;;-6.40;100.00;100445.94;4820520;29;20052;-73
2022/11/20 00:13:48;;;;;;;20.42;10.65;;;-4.40;99.90;;;-6.38;100.00;100451.97;4819301;29;20037;-74
2022/11/20 00:16:19;;;;;;;22.00;11.05;;;-4.40;99.90;;;-6.36;100.00;100444.78;4819909;29;20090;-74
2022/11/20 00:18:46;;;;;;;20.20;10.13;;;-4.40;99.90;;;-6.34;100.00;100447.31;4820009;29;20053;-74
2022/11/20 00:21:19;;;;;;;21.08;10.65;;;-4.30;99.90;;;-6.38;100.00;100438.72;4819958;29;20038;-74
2022/11/20 00:23:45;;;;;;;19.65;9.45;;;-4.40;99.90;;;-6.31;100.00;100442.63;4819999;29;20254;-74
2022/11/20 00:26:15;;;;;;;18.35;10.18;;;-4.30;99.90;;;-6.26;100.00;100435.16;4819753;29;20053;-74
2022/11/20 00:28:44;;;;;;;17.95;9.55;;;-4.30;99.90;;;-6.28;100.00;100441.53;4819994;29;20054;-74
2022/11/20 00:31:15;;;;;;;20.45;10.15;;;-4.30;99.90;;;-6.26;100.00;100444.94;4819711;29;20549;-74
2022/11/20 00:33:42;;;;;;;21.35;10.07;;;-4.30;99.90;;;-6.21;100.00;100446.28;4819528;29;20149;-74
2022/11/20 00:36:12;;;;;;;18.40;9.88;;;-4.20;99.90;;;-6.24;100.00;100449.19;4819669;29;20050;-74
2022/11/20 00:38:38;;;;;;;21.50;10.82;;;-4.30;99.90;;;-6.27;100.00;100444.09;4819903;29;20098;-74
2022/11/20 00:41:08;;;;;;;20.30;10.95;;;-4.30;99.90;;;-6.27;100.00;100446.75;4833615;29;20439;-74
2022/11/20 00:43:34;;;;;;;19.60;10.40;;;-4.30;99.90;;;-6.33;100.00;100446.34;4819860;29;20030;-74
2022/11/20 00:46:09;;;;;;;19.90;10.50;;;-4.40;99.90;;;-6.40;100.00;100444.16;4819982;29;20038;-74
2022/11/20 00:48:36;;;;;;;18.05;9.25;;;-4.40;99.90;;;-6.47;100.00;100447.34;4819255;29;20452;-74
2022/11/20 00:51:02;;;;;;;19.00;10.18;;;-4.50;99.90;;;-6.64;100.00;100436.13;4819859;29;20027;-73
2022/11/20 00:53:28;;;;;;;23.17;10.13;;;-4.60;99.90;;;-6.80;100.00;100426.63;4819548;29;20034;-73
2022/11/20 00:56:07;;;;;;;19.00;9.35;;;-4.80;99.90;;;-6.76;100.00;100426.41;4833459;29;20034;-75
2022/11/20 00:58:39;;;;;;;16.95;9.10;;;-4.80;99.90;;;-6.81;100.00;100434.69;4819668;29;20160;-73
2022/11/20 01:01:19;;;;;;;21.00;10.57;;;-4.90;99.90;;;-6.82;100.00;100423.25;4819333;29;20455;-74
2022/11/20 01:03:48;;;;;;;20.00;10.07;;;-4.80;99.90;;;-6.67;100.00;100428.41;4819651;29;20046;-74
2022/11/20 01:06:21;;;;;;;18.48;9.55;;;-4.70;99.90;;;-6.53;100.00;100430.91;4819190;29;20038;-74
2022/11/20 01:08:48;;;;;;;18.92;10.05;;;-4.60;99.90;;;-6.43;100.00;100444.38;4830506;29;20038;-74
2022/11/20 01:11:19;;;;;;;20.75;10.77;;;-4.50;99.90;;;-6.37;100.00;100433.28;4833092;29;20044;-74
2022/11/20 01:13:47;;;;;;;18.85;9.43;;;-4.50;99.90;;;-6.41;100.00;100429.19;4819798;29;20042;-74
2022/11/20 01:16:29;;;;;;;21.58;10.02;;;-4.50;99.90;;;-6.39;100.00;100429.91;4819481;29;20045;-74
2022/11/20 01:18:59;;;;;;;17.27;9.23;;;-4.50;99.90;;;-6.41;100.00;100426.53;4819014;29;20269;-74
2022/11/20 01:21:39;;;;;;;20.65;9.32;;;-4.50;99.90;;;-6.40;100.00;100427.34;4819456;29;20448;-73
2022/11/20 01:24:10;;;;;;;19.10;10.18;;;-4.50;99.90;;;-6.43;100.00;100423.13;4819858;29;20094;-74
2022/11/20 01:26:40;;;;;;;19.80;9.93;;;-4.50;99.90;;;-6.38;100.00;100428.09;4818780;29;20111;-73
2022/11/20 01:29:10;;;;;;;20.73;9.52;;;-4.50;99.90;;;-6.45;100.00;100430.38;4819437;29;20045;-73
2022/11/20 01:31:37;;;;;;;18.88;10.60;;;-4.60;99.90;;;-6.49;100.00;100423.59;4819346;29;20038;-74
2022/11/20 01:34:11;;;;;;;17.73;9.15;;;-4.60;99.90;;;-6.52;100.00;100418.47;4820074;29;20110;-73
2022/11/20 01:36:40;;;;;;;18.67;9.85;;;-4.60;99.90;;;-6.53;100.00;100420.28;4820123;29;20053;-74
2022/11/20 01:39:29;;;;;;;17.85;9.30;;;-4.60;99.90;;;-6.51;100.00;100415.72;4819595;29;20098;-74
2022/11/20 01:44:59;;;;;;;17.92;9.38;;;-4.50;99.90;;;-6.44;100.00;100408.16;4819267;29;20035;-73
2022/11/20 01:47:41;;;;;;;20.73;10.05;;;-4.50;99.90;;;-6.43;100.00;100396.59;4819546;29;20038;-74
2022/11/20 01:50:18;;;;;;;19.38;9.77;;;-4.50;99.90;;;-6.38;100.00;100401.53;4819511;29;20068;-74
2022/11/20 01:53:00;;;;;;;18.55;10.23;;;-4.40;99.90;;;-6.26;100.00;100402.44;4819311;29;20094;-75
2022/11/20 01:55:36;;;;;;;18.67;9.95;;;-4.30;99.90;;;-6.11;100.00;100401.31;4819519;29;20535;-74
2022/11/20 01:58:04;;;;;;;24.02;10.20;;;-4.20;99.90;;;-5.98;100.00;100393.22;4819156;29;20037;-74
2022/11/20 02:00:30;;;;;;;21.17;10.55;;;-4.10;99.90;;;-5.82;100.00;100392.91;4819163;29;20042;-75
2022/11/20 02:03:01;;;;;;;18.33;10.43;;;-4.00;99.90;;;-5.65;100.00;100388.97;4818884;29;20077;-75
2022/11/20 02:05:42;;;;;;;23.20;11.13;;;-3.80;99.90;;;-5.49;100.00;100385.97;4818957;29;20046;-75
2022/11/20 02:08:08;;;;;;;20.08;9.90;;;-3.60;99.90;;;-5.45;100.00;100386.59;4818802;29;20038;-75
2022/11/20 02:10:34;;;;;;;25.25;11.13;;;-3.50;99.90;;;-5.42;100.00;100389.00;4833421;29;20046;-74
2022/11/20 02:15:46;;;;;;;19.42;9.90;;;-3.40;99.90;;;-5.27;100.00;100400.25;4819047;29;20042;-74
2022/11/20 02:18:16;;;;;;;21.02;10.65;;;-3.40;99.90;;;-5.13;100.00;100399.16;4823062;29;20129;-74
2022/11/20 02:20:48;;;;;;;19.38;10.10;;;-3.30;99.90;;;-5.03;100.00;100385.16;4818655;29;20030;-73
2022/11/20 02:23:44;;;;;;;18.73;9.75;;;-3.20;99.90;;;-4.95;100.00;100391.53;4818826;29;20035;-74
2022/11/20 02:26:15;;;;;;;16.60;9.32;;;-3.10;99.90;;;-4.90;100.00;100391.19;4818980;29;20091;-74
2022/11/20 02:28:41;;;;;;;19.77;9.48;;;-3.00;99.90;;;-4.90;100.00;100393.84;4828516;29;20174;-74
2022/11/20 02:31:07;;;;;;;15.27;8.88;;;-3.00;99.90;;;-4.90;100.00;100391.19;4818526;29;20038;-75
2022/11/20 02:33:33;;;;;;;19.58;9.98;;;-3.00;99.90;;;-4.95;100.00;100383.56;4817097;29;20089;-75
2022/11/20 02:35:59;;;;;;;16.85;8.75;;;-3.00;99.90;;;-4.93;100.00;100386.09;4818402;29;20073;-74
2022/11/20 02:38:24;;;;;;;19.15;10.05;;;-3.00;99.90;;;-4.98;100.00;100386.47;4820869;29;20673;-75
2022/11/20 02:40:50;;;;;;;16.55;8.65;;;-3.10;99.90;;;-4.99;100.00;100384.78;4821567;29;20474;-74
2022/11/20 02:43:16;;;;;;;18.55;9.30;;;-3.10;99.90;;;-4.99;100.00;100387.44;4821536;29;20042;-74
2022/11/20 02:45:42;;;;;;;15.55;9.23;;;-3.10;99.90;;;-4.99;100.00;100382.09;4821707;29;20034;-74
2022/11/20 02:48:07;;;;;;;17.67;9.55;;;-3.10;99.90;;;-5.02;100.00;100379.69;4822109;29;20194;-75
2022/11/20 02:50:36;;;;;;;16.75;8.90;;;-3.10;99.90;;;-4.98;100.00;100378.47;4833321;29;20087;-75
2022/11/20 02:53:07;;;;;;;17.38;9.25;;;-3.10;99.90;;;-5.01;100.00;100377.91;4835847;29;20039;-73
2022/11/20 02:55:33;;;;;;;18.38;10.18;;;-3.10;99.90;;;-5.10;100.00;100361.69;4822276;29;20022;-74
2022/11/20 02:57:58;;;;;;;18.55;8.57;;;-3.20;99.90;;;-5.01;100.00;100377.91;4822197;29;20049;-75
2022/11/20 03:00:24;;;;;;;17.75;9.02;;;-3.10;99.90;;;-5.06;100.00;100364.94;4821600;29;20065;-74
2022/11/20 03:02:50;;;;;;;16.52;8.35;;;-3.20;99.90;;;-5.06;100.00;100373.75;4822525;29;20043;-74
2022/11/20 03:05:16;;;;;;;18.95;9.52;;;-3.20;99.90;;;-5.11;100.00;100367.13;4837297;29;20074;-74
2022/11/20 03:07:43;;;;;;;17.65;8.65;;;-3.20;99.90;;;-5.15;100.00;100366.53;4822053;29;20387;-75
2022/11/20 03:10:09;;;;;;;17.40;9.43;;;-3.20;99.90;;;-5.20;100.00;100374.03;4824262;29;20026;-74
2022/11/20 03:12:35;;;;;;;15.93;8.32;;;-3.30;99.90;;;-5.24;100.00;100372.59;4824732;29;20033;-73
2022/11/20 03:15:01;;;;;;;18.73;9.02;;;-3.30;99.90;;;-5.27;100.00;100378.16;4822127;29;20678;-73
2022/11/20 03:17:27;;;;;;;18.30;8.50;;;-3.40;99.90;;;-5.25;100.00;100370.88;4826095;29;20258;-73
2022/11/20 03:19:53;;;;;;;18.83;9.13;;;-3.40;99.90;;;-5.29;100.00;100374.75;4823339;29;20073;-74
2022/11/20 03:22:18;;;;;;;17.88;9.43;;;-3.40;99.90;;;-5.24;100.00;100367.25;4821665;29;20035;-73
2022/11/20 03:24:44;;;;;;;16.65;8.50;;;-3.50;99.90;;;-5.22;100.00;100358.19;4821609;29;20050;-75
2022/11/20 03:27:10;;;;;;;17.83;9.48;;;-3.40;99.90;;;-5.22;100.00;100360.00;4822012;29;20480;-75
2022/11/20 03:29:35;;;;;;;16.55;9.07;;;-3.40;99.90;;;-5.14;100.00;100372.69;4822844;29;20041;-74
2022/11/20 03:32:01;;;;;;;17.77;8.80;;;-3.40;99.90;;;-5.20;100.00;100358.06;4824299;29;20085;-75
2022/11/20 03:34:27;;;;;;;16.13;8.70;;;-3.40;99.90;;;-5.35;100.00;100362.78;4821391;29;20034;-74
2022/11/20 03:36:53;;;;;;;18.42;8.75;;;-3.50;99.90;;;-5.42;100.00;100365.06;4821852;29;20482;-74
2022/11/20 03:39:18;;;;;;;15.30;8.80;;;-3.50;99.90;;;-5.48;100.00;100357.56;4821599;29;20041;-75
2022/11/20 03:41:44;;;;;;;17.40;8.73;;;-3.60;99.90;;;-5.52;100.00;100353.47;4820901;29;20027;-74
2022/11/20 03:44:11;;;;;;;15.10;7.97;;;-3.60;99.90;;;-5.57;100.00;100356.47;4821934;29;20590;-73
2022/11/20 03:46:38;;;;;;;16.53;8.40;;;-3.70;99.90;;;-5.59;100.00;100357.56;4820805;29;20049;-74
2022/11/20 03:49:04;;;;;;;14.50;8.32;;;-3.70;99.90;;;-5.63;100.00;100352.47;4820674;29;20042;-73
2022/11/20 03:51:33;;;;;;;18.88;9.35;;;-3.70;99.90;;;-5.70;100.00;100345.09;4820524;29;20038;-73
2022/11/20 03:54:03;;;;;;;18.10;8.63;;;-3.70;99.90;;;-5.68;100.00;100352.00;4820589;29;20469;-74
2022/11/20 03:56:33;;;;;;;16.85;8.65;;;-3.70;99.90;;;-5.67;100.00;100351.03;4820588;29;20034;-74
2022/11/20 03:59:00;;;;;;;17.02;8.80;;;-3.80;99.90;;;-5.73;100.00;100345.31;4821314;29;20343;-74
2022/11/20 04:01:30;;;;;;;16.45;9.38;;;-3.70;99.90;;;-5.68;100.00;100341.34;4823366;29;20046;-74
2022/11/20 04:03:56;;;;;;;15.52;8.98;;;-3.70;99.90;;;-5.59;100.00;100353.09;4820318;29;20042;-74
2022/11/20 04:06:30;;;;;;;20.30;8.93;;;-3.70;99.90;;;-5.54;100.00;100348.25;4820317;29;20072;-74
2022/11/20 04:08:58;;;;;;;17.63;8.45;;;-3.70;99.90;;;-5.48;100.00;100338.97;4825542;29;20034;-74
2022/11/20 04:11:29;;;;;;;17.40;8.48;;;-3.60;99.90;;;-5.50;100.00;100335.59;4820072;29;20038;-75
2022/11/20 04:14:01;;;;;;;16.20;8.80;;;-3.60;99.90;;;-5.55;100.00;100324.47;4820507;29;20050;-74
2022/11/20 04:16:32;;;;;;;16.60;8.40;;;-3.60;99.90;;;-5.54;100.00;100331.47;4819853;29;20498;-74
2022/11/20 04:19:01;;;;;;;17.05;8.88;;;-3.60;99.90;;;-5.50;100.00;100325.78;4820376;29;20056;-73
2022/11/20 04:21:28;;;;;;;18.70;8.48;;;-3.60;99.90;;;-5.46;100.00;100314.91;4820265;29;20447;-74
2022/11/20 04:23:55;;;;;;;14.75;8.20;;;-3.60;99.90;;;-5.33;100.00;100323.63;4820018;29;20201;-74
2022/11/20 04:26:23;;;;;;;19.38;9.20;;;-3.50;99.90;;;-5.31;100.00;100310.19;4820351;29;20507;-74
2022/11/20 04:28:50;;;;;;;16.85;8.82;;;-3.40;99.90;;;-5.26;100.00;100321.31;4819740;29;20030;-74
2022/11/20 04:31:38;;;;;;;16.27;8.65;;;-3.40;99.90;;;-5.30;100.00;100315.38;4819939;29;20046;-75
2022/11/20 04:34:07;;;;;;;17.38;8.93;;;-3.30;99.90;;;-5.29;100.00;100324.22;4819885;29;20030;-74
2022/11/20 04:36:34;;;;;;;19.33;8.73;;;-3.40;99.90;;;-5.34;100.00;100321.91;4820878;29;20039;-75
2022/11/20 04:39:05;;;;;;;17.38;9.38;;;-3.40;99.90;;;-5.37;100.00;100312.34;4820059;29;20049;-74
2022/11/20 04:41:35;;;;;;;14.82;8.43;;;-3.40;99.90;;;-5.28;100.00;100316.09;4818379;29;20430;-74
2022/11/20 04:44:04;;;;;;;18.52;8.85;;;-3.40;99.90;;;-5.25;100.00;100315.03;4819880;29;20054;-74
2022/11/20 04:46:37;;;;;;;15.27;8.48;;;-3.30;99.90;;;-5.25;100.00;100312.38;4819530;29;20042;-74
2022/11/20 04:49:03;;;;;;;17.60;8.88;;;-3.30;99.90;;;-5.18;100.00;100315.38;4819729;29;20410;-74
2022/11/20 04:51:29;;;;;;;15.98;8.43;;;-3.30;99.90;;;-5.15;100.00;100312.47;4819723;29;20375;-74
2022/11/20 04:53:55;;;;;;;16.38;8.63;;;-3.20;99.90;;;-5.13;100.00;100311.38;4826306;29;20058;-74
2022/11/20 04:56:21;;;;;;;15.88;8.35;;;-3.20;99.90;;;-5.11;100.00;100298.78;4821074;29;20517;-75
2022/11/20 04:58:47;;;;;;;16.77;8.68;;;-3.20;99.90;;;-5.03;100.00;100315.97;4822589;29;20033;-74
2022/11/20 05:01:20;;;;;;;16.58;8.40;;;-3.10;99.90;;;-5.09;100.00;100317.31;4818864;29;20078;-74
2022/11/20 05:03:45;;;;;;;14.55;7.75;;;-3.20;99.90;;;-5.21;100.00;100303.16;4819594;29;20118;-75
2022/11/20 05:06:15;;;;;;;15.20;8.68;;;-3.10;99.90;;;-5.07;100.00;100323.34;4819263;29;20394;-75
2022/11/20 05:08:42;;;;;;;15.57;8.27;;;-3.10;99.90;;;-5.06;100.00;100327.69;4817886;29;20022;-74
2022/11/20 05:11:18;;;;;;;14.98;8.38;;;-3.10;99.90;;;-5.02;100.00;100328.31;4819521;29;20038;-74
2022/11/20 05:13:44;;;;;;;14.57;8.00;;;-3.10;99.90;;;-4.91;100.00;100325.63;4819444;29;20474;-74
2022/11/20 05:16:14;;;;;;;14.30;7.68;;;-3.00;99.90;;;-4.74;100.00;100334.88;4819662;29;20042;-75
2022/11/20 05:18:41;;;;;;;17.55;8.85;;;-2.90;99.90;;;-4.80;100.00;100336.22;4819219;29;20053;-76
2022/11/20 05:21:08;;;;;;;15.97;8.30;;;-2.90;99.90;;;-4.78;100.00;100314.81;4819502;29;20045;-74
2022/11/20 05:23:35;;;;;;;14.15;8.38;;;-2.80;99.90;;;-4.79;100.00;100316.63;4819103;29;20346;-74
2022/11/20 05:26:04;;;;;;;16.08;8.00;;;-2.80;99.90;;;-4.85;100.00;100297.66;4819080;29;20060;-75
2022/11/20 05:28:31;;;;;;;13.48;6.93;;;-2.80;99.90;;;-4.72;100.00;100322.28;4819068;29;20266;-74
2022/11/20 05:31:09;;;;;;;13.13;7.22;;;-2.80;99.90;;;-4.72;100.00;100316.97;4819327;29;20561;-74
2022/11/20 05:33:36;;;;;;;13.85;7.65;;;-2.80;99.90;;;-4.63;100.00;100320.69;4819096;29;20038;-74
2022/11/20 05:36:04;;;;;;;16.75;7.72;;;-2.80;99.90;;;-4.67;100.00;100317.44;4819265;29;20078;-75
2022/11/20 05:38:31;;;;;;;14.50;7.57;;;-2.80;99.90;;;-4.76;100.00;100307.56;4819323;29;20049;-74
2022/11/20 05:41:11;;;;;;;14.90;7.85;;;-2.70;99.90;;;-4.65;100.00;100312.00;4819195;29;20050;-74
2022/11/20 05:43:41;;;;;;;17.23;7.97;;;-2.70;99.90;;;-4.52;100.00;100302.00;4819302;29;20070;-75
2022/11/20 05:46:10;;;;;;;14.80;7.70;;;-2.70;99.90;;;-4.53;100.00;100310.97;4819031;29;20053;-75
2022/11/20 05:48:38;;;;;;;13.50;7.72;;;-2.60;99.90;;;-4.59;100.00;100298.16;4818946;29;20450;-74
2022/11/20 05:51:07;;;;;;;13.82;8.23;;;-2.60;99.90;;;-4.52;100.00;100301.19;4819108;29;20042;-75
2022/11/20 05:53:34;;;;;;;15.98;8.52;;;-2.60;99.90;;;-4.53;100.00;100289.66;4830428;29;20035;-75
2022/11/20 05:56:05;;;;;;;14.45;7.95;;;-2.60;99.90;;;-4.51;100.00;100290.41;4819012;29;20491;-75
2022/11/20 05:58:32;;;;;;;14.90;7.95;;;-2.60;99.90;;;-4.55;100.00;100278.28;4818776;29;20749;-74
2022/11/20 06:01:18;;;;;;;13.70;7.72;;;-2.50;99.90;;;-4.44;100.00;100292.56;4822370;29;20120;-75
2022/11/20 06:03:47;;;;;;;15.85;7.68;;;-2.50;99.90;;;-4.44;100.00;100295.22;4821952;29;20038;-75
2022/11/20 06:06:14;;;;;;;15.23;8.18;;;-2.50;99.90;;;-4.50;100.00;100280.59;4828994;29;20042;-74
2022/11/20 06:08:41;;;;;;;13.30;7.75;;;-2.50;99.90;;;-4.42;100.00;100295.94;4831690;29;20304;-74
2022/11/20 06:11:10;;;;;;;12.80;7.18;;;-2.50;99.90;;;-4.42;100.00;100293.28;4826069;29;20058;-74
2022/11/20 06:13:36;;;;;;;15.77;8.10;;;-2.50;99.90;;;-4.43;100.00;100295.06;4821649;29;20041;-75
2022/11/20 06:16:02;;;;;;;14.10;7.47;;;-2.50;99.90;;;-4.37;100.00;100297.25;4822615;29;20046;-75
2022/11/20 06:18:29;;;;;;;13.00;7.10;;;-2.50;99.90;;;-4.31;100.00;100285.22;4818631;29;20046;-75
2022/11/20 06:21:09;;;;;;;16.20;7.83;;;-2.40;99.90;;;-4.29;100.00;100291.25;4820652;29;20472;-74
2022/11/20 06:23:35;;;;;;;15.32;7.70;;;-2.40;99.90;;;-4.28;100.00;100292.94;4824075;29;20051;-74
2022/11/20 06:26:05;;;;;;;13.07;7.25;;;-2.40;99.90;;;-4.29;100.00;100293.91;4821878;29;20050;-75
2022/11/20 06:28:31;;;;;;;16.00;7.38;;;-2.40;99.90;;;-4.35;100.00;100284.66;4821429;29;20401;-74
2022/11/20 06:30:58;;;;;;;16.13;8.35;;;-2.40;99.90;;;-4.32;100.00;100288.84;4821809;29;20091;-74
2022/11/20 06:33:23;;;;;;;14.10;7.32;;;-2.40;99.90;;;-4.29;100.00;100288.59;4833488;29;20068;-76
2022/11/20 06:35:49;;;;;;;16.25;8.30;;;-2.40;99.90;;;-4.33;100.00;100276.50;4821879;29;20146;-74
2022/11/20 06:38:15;;;;;;;14.18;7.65;;;-2.40;99.90;;;-4.25;100.00;100275.88;4835848;29;20029;-79
2022/11/20 06:40:42;;;;;;;12.82;7.30;;;-2.30;99.90;;;-4.22;100.00;100279.13;4826934;29;20046;-79
2022/11/20 06:43:11;;;;;;;15.43;7.90;;;-2.30;99.90;;;-4.30;100.00;100273.59;4830293;29;20065;-75
2022/11/20 06:45:37;;;;;;;13.10;7.43;;;-2.30;99.90;;;-4.26;100.00;100282.16;4830861;29;20080;-74
2022/11/20 06:48:04;;;;;;;13.20;7.40;;;-2.30;99.90;;;-4.28;100.00;100284.94;4823976;29;20058;-76
2022/11/20 06:50:29;;;;;;;12.60;7.05;;;-2.30;99.90;;;-4.25;100.00;100274.03;4832300;29;20038;-76
2022/11/20 06:52:55;;;;;;;13.05;7.50;;;-2.30;99.90;;;-4.14;100.00;100274.97;4829353;29;20038;-76
2022/11/20 06:55:21;;;;;;;15.27;8.13;;;-2.30;99.90;;;-4.16;100.00;100276.91;4833446;29;20034;-76
2022/11/20 06:57:47;;;;;;;13.48;7.82;;;-2.20;99.90;;;-4.20;100.00;100271.84;4825673;29;20078;-76
2022/11/20 07:00:13;;;;;;;16.33;8.18;;;-2.20;99.90;;;-4.14;100.00;100274.97;4821278;29;20034;-75
2022/11/20 07:02:39;;;;;;;14.10;7.38;;;-2.20;99.90;;;-4.14;100.00;100278.44;4821252;29;20046;-74
2022/11/20 07:05:05;;;;;;;13.30;7.63;;;-2.20;99.90;;;-4.13;100.00;100279.31;4828768;29;20038;-74
2022/11/20 07:07:31;;;;;;;14.90;8.55;;;-2.20;99.90;;;-4.07;100.00;100269.00;4832619;29;20430;-73
2022/11/20 07:09:56;;;;;;;13.60;7.45;;;-2.20;99.90;;;-4.08;100.00;100261.97;4825351;29;20049;-72
2022/11/20 07:12:22;;;;;;;14.88;8.45;;;-2.20;99.90;;;-4.20;100.00;100260.34;4832529;29;21447;-72
2022/11/20 07:14:48;;;;;;;15.27;8.32;;;-2.20;99.90;;;-4.21;100.00;100259.50;4833660;29;20509;-71
2022/11/20 07:17:14;;;;;;;15.35;8.48;;;-2.20;99.90;;;-4.21;100.00;100259.50;4833623;29;20029;-73
2022/11/20 07:19:39;;;;;;;14.10;7.28;;;-2.20;99.90;;;-4.15;100.00;100257.28;4831216;29;20046;-73
2022/11/20 07:22:05;;;;;;;14.38;7.78;;;-2.20;99.90;;;-4.14;100.00;100273.13;4832855;29;20526;-74
2022/11/20 07:24:31;;;;;;;15.48;7.72;;;-2.20;99.90;;;-4.15;100.00;100267.94;4822284;29;20034;-73
2022/11/20 07:26:57;;;;;;;14.55;7.38;;;-2.20;99.90;;;-4.19;100.00;100268.22;4820416;29;20122;-73
2022/11/20 07:29:22;;;;;;;17.15;8.63;;;-2.20;99.90;;;-4.12;100.00;100262.34;4820566;29;20805;-73
2022/11/20 07:31:48;;;;;;;13.35;7.68;;;-2.20;99.90;;;-4.15;100.00;100259.94;4828546;29;20782;-74
2022/11/20 07:34:14;;;;;;;13.50;7.32;;;-2.20;99.90;;;-4.07;100.00;100262.78;4834874;29;20037;-73
2022/11/20 07:36:39;;;;;;;16.95;8.32;;;-2.20;99.90;;;-4.06;100.00;100257.34;4834784;29;20417;-72
2022/11/20 07:39:05;;;;;;;14.05;7.97;;;-2.10;99.90;;;-3.99;100.00;100260.31;4830985;29;20130;-73
2022/11/20 07:41:31;;;;;;;15.43;7.72;;;-2.10;99.90;;;-3.95;100.00;100260.91;4831941;29;20493;-73
2022/11/20 07:43:57;;;;;;;13.80;7.63;;;-2.00;99.90;;;-4.00;100.00;100255.97;4834205;29;20124;-72
2022/11/20 07:46:23;;;;;;;14.45;7.53;;;-2.00;99.90;;;-3.94;100.00;100255.44;4832011;29;20045;-72
2022/11/20 07:48:49;;;;;;;14.55;8.07;;;-2.00;99.90;;;-3.91;100.00;100265.84;4833483;29;20090;-73
2022/11/20 07:51:15;;;;;;;14.90;7.90;;;-2.00;99.90;;;-3.89;100.00;100271.03;4832608;29;20045;-73
2022/11/20 07:53:40;;;;;;;14.25;7.60;;;-2.00;99.90;;;-3.96;100.00;100257.41;4832877;29;20082;-73
2022/11/20 07:56:06;;;;;;;12.25;7.38;;;-2.00;99.90;;;-3.95;100.00;100268.91;4829806;29;20044;-73
2022/11/20 07:58:38;;;;;;;13.88;7.70;;;-2.00;99.90;;;-3.86;100.00;100272.59;4833532;29;20080;-74
2022/11/20 08:01:08;;;;;;;13.77;7.63;;;-1.90;99.90;;;-3.90;100.00;100275.53;4831791;29;20034;-72
2022/11/20 08:03:34;;;;;;;15.60;8.18;;;-1.90;99.90;;;-3.81;100.00;100273.91;4832649;29;20396;-75
2022/11/20 08:06:01;;;;;;;14.70;8.55;;;-1.90;99.90;;;-3.79;100.00;100279.94;4837386;29;20675;-75
2022/11/20 08:08:28;;;;;;;14.73;8.23;;;-1.90;99.90;;;-3.83;100.00;100283.84;4823808;29;20533;-74
2022/11/20 08:14:11;;;;;;;13.32;7.97;;;-1.90;99.90;;;-3.82;100.00;100282.03;4827987;29;20037;-74
2022/11/20 08:14:12;;;;;;;16.20;8.05;;;-1.90;99.90;;;-3.70;100.00;100274.78;4830328;29;20091;-74
2022/11/20 08:16:31;;;;;;;14.23;8.23;;;-1.80;99.90;;;-3.62;100.00;100273.16;4818554;29;20508;-72
2022/11/20 08:18:57;;;;;;;13.10;7.35;;;-1.70;99.90;;;-3.53;100.00;100278.66;4826632;29;20041;-74
2022/11/20 08:21:23;;;;;;;13.95;7.90;;;-1.70;99.90;;;-3.55;100.00;100276.13;4826059;29;20041;-72
2022/11/20 08:23:49;;;;;;;15.13;8.63;;;-1.70;99.90;;;-3.50;100.00;100273.03;4820559;29;20045;-75
2022/11/20 08:26:15;;;;;;;13.40;7.30;;;-1.60;99.90;;;-3.54;100.00;100263.63;4819625;29;20038;-76
2022/11/20 08:28:41;;;;;;;12.07;7.35;;;-1.60;99.90;;;-3.54;100.00;100263.63;4825069;29;20026;-75
2022/11/20 08:31:06;;;;;;;14.32;8.02;;;-1.60;99.90;;;-3.50;100.00;100267.69;4835144;29;20036;-75
2022/11/20 08:33:33;;;;;;;18.42;8.50;;;-1.60;99.90;;;-3.50;100.00;100273.03;4832443;29;20133;-75
2022/11/20 08:36:04;;;;;;;17.17;8.27;;;-1.60;99.90;;;-3.44;100.00;100277.00;4827460;29;20049;-73
2022/11/20 08:38:31;;;;;;;16.60;9.50;;;-1.50;99.90;;;-3.44;100.00;100269.84;4827142;29;20322;-73
2022/11/20 08:43:46;;;;;;;15.93;8.60;;;-1.40;99.90;;;-3.20;100.00;100274.84;4829217;29;20034;-73
2022/11/20 08:46:12;;;;;;;16.48;8.27;;;-1.30;99.90;;;-3.16;100.00;100272.75;4826386;29;20040;-72
2022/11/20 08:48:38;;;;;;;15.27;8.32;;;-1.30;99.90;;;-3.16;98.67;100275.41;4828586;29;20676;-72
2022/11/20 08:51:04;;;;;;;13.85;7.70;;;-1.30;99.90;;;-3.20;97.52;100269.50;4841815;29;20086;-72
2022/11/20 08:53:30;;;;;;;16.70;8.40;;;-1.30;99.90;;;-3.14;96.67;100262.78;4838506;29;20042;-75
2022/11/20 08:55:58;;;;;;;15.80;8.05;;;-1.20;99.90;;;-3.20;98.23;100261.50;4840104;29;20041;-72
2022/11/20 08:58:24;;;;;;;;;;;-1.20;99.90;;;-3.16;99.37;100255.88;4838793;29;20034;-73
2022/11/20 09:00:50;;;;;;;13.50;7.35;;;-1.20;99.90;;;-3.08;100.00;100250.69;4835981;29;20368;-72
2022/11/20 09:03:16;;;;;;;16.75;9.20;;;-1.10;99.90;;;-2.94;97.23;100270.78;4839459;29;20062;-72
2022/11/20 09:05:42;;;;;;;12.60;7.75;;;-1.00;99.90;;;-2.79;97.07;100274.78;4837789;29;20038;-72
2022/11/20 09:08:08;;;;;;;16.05;8.95;;;-0.90;99.90;;;-2.55;95.62;100280.69;4819001;29;20061;-73
2022/11/20 09:10:34;;;;;;;16.70;8.20;;;-0.70;99.90;;;-2.46;91.14;100294.03;4819341;29;20022;-72
2022/11/20 09:13:01;;;;;;;13.02;8.23;;;-0.60;99.90;;;-2.42;91.99;100297.28;4820070;29;20494;-74
2022/11/20 09:15:27;;;;;;;13.68;8.45;;;-0.40;99.90;;;-2.22;90.70;100290.09;4820277;29;20030;-73
2022/11/20 09:17:58;;;;;;;14.15;8.68;;;-0.30;99.90;;;-2.06;89.35;100284.16;4819565;29;20032;-74
2022/11/20 09:20:28;;;;;;;15.43;9.25;;;-0.20;99.90;;;-1.94;91.30;100286.69;4819400;29;20054;-73
2022/11/20 09:22:54;;;;;;;14.15;7.70;;;0.00;99.90;;;-1.84;88.06;100279.47;4823270;29;20107;-72
2022/11/20 09:25:21;;;;;;;14.00;8.23;;;0.00;99.90;;;-1.78;88.05;100278.06;4833157;29;20030;-73
2022/11/20 09:27:47;;;;;;;12.77;7.55;;;0.10;99.90;;;-2.00;88.36;100261.38;4835346;29;20057;-74
2022/11/20 09:30:16;;;;;;;15.13;8.13;;;0.00;99.90;;;-1.92;87.70;100264.16;4838534;29;20516;-76
2022/11/20 09:32:43;;;;;;;14.18;8.15;;;0.00;99.90;;;-2.14;87.87;100253.78;4835903;29;20110;-71
2022/11/20 09:35:10;;;;;;;16.52;8.43;;;-0.10;99.90;;;-2.35;91.88;100257.50;4836760;29;20137;-73
2022/11/20 09:37:36;;;;;;;13.50;7.70;;;-0.30;99.90;;;-2.31;92.79;100259.72;4831139;29;20061;-75
2022/11/20 09:40:01;;;;;;;14.52;8.20;;;-0.40;99.90;;;-2.02;91.02;100260.66;4836988;29;20076;-72
2022/11/20 09:42:52;;;;;;;16.13;8.70;;;-0.20;99.90;;;-1.18;86.91;100261.63;4840909;29;20030;-72
2022/11/20 09:45:35;;;;;;;13.93;7.95;;;0.20;99.90;;;-0.32;78.43;100263.94;4836835;29;20034;-73
2022/11/20 09:48:38;;;;;;;12.77;7.28;;;1.30;99.90;;;0.06;71.49;100272.63;4836901;29;20053;-73
2022/11/20 09:51:35;;;;;;;12.85;7.60;;;2.10;99.90;;;0.93;67.67;100271.72;4831047;29;20130;-74
2022/11/20 09:54:22;;;;;;;11.98;7.10;;;2.50;99.90;;;1.26;64.88;100266.41;4822445;29;20037;-74
2022/11/20 09:57:03;;;;;;;13.02;7.63;;;3.40;99.90;;;1.79;60.69;100276.88;4833781;29;20056;-72
2022/11/20 09:59:55;;;;;;;11.15;6.55;;;3.80;99.90;;;2.36;58.87;100280.50;4826764;29;20057;-75
2022/11/20 10:02:26;;;;;;;11.75;7.00;;;3.90;99.90;;;2.65;56.74;100280.94;4827527;29;20490;-75
2022/11/20 10:05:18;;;;;;;11.38;7.22;;;4.40;99.70;;;2.90;55.78;100261.97;4822708;29;20049;-74
2022/11/20 10:07:55;;;;;;;12.43;7.97;;;4.70;98.70;;;2.13;57.60;100265.09;4820689;29;20478;-75
2022/11/20 10:10:56;;;;;;;11.65;7.68;;;4.40;98.40;;;1.38;60.70;100255.34;4822695;29;20034;-74
2022/11/20 10:14:13;;;;;;;11.98;7.45;;;3.70;99.90;;;1.25;64.77;100264.72;4821127;29;20130;-73
2022/11/20 10:17:29;;;;;;;12.27;7.45;;;3.60;99.90;;;0.93;64.47;100266.34;4831190;29;20073;-77
2022/11/20 10:20:29;;;;;;;12.85;8.20;;;3.10;99.90;;;0.69;67.99;100257.19;4822392;29;20055;-74